Time;durP1;ratioP1;P1;durP2;ratioP2;P2;SDS_P1;SDS_P2;PMS_P1;PMS_P2;Temp;Humidity;BMP_temperature;BMP_pressure;BME280_temperature;BME280_humidity;BME280_pressure;Samples;Min_cycle;Max_cycle;Signal;HPM_P1;HPM_P2
2022/07/28 00:02:22;;;;;;;6.07;1.90;;;;;;;12.99;73.24;101869.69;5094228;28;20085;-43
2022/07/28 00:04:47;;;;;;;5.18;1.90;;;;;;;12.97;73.95;101863.56;5094574;28;20123;-43
2022/07/28 00:07:13;;;;;;;5.50;2.00;;;;;;;12.90;74.25;101854.72;5095092;28;20032;-46
2022/07/28 00:09:38;;;;;;;6.13;2.00;;;;;;;12.95;73.22;101866.13;5093789;28;20020;-44
2022/07/28 00:12:04;;;;;;;5.93;2.22;;;;;;;12.93;73.57;101866.88;5094742;28;20024;-44
2022/07/28 00:14:29;;;;;;;4.93;2.10;;;;;;;12.93;73.71;101867.75;5094831;28;20016;-43
2022/07/28 00:16:55;;;;;;;8.82;2.45;;;;;;;12.85;74.02;101864.03;5093880;28;20020;-44
2022/07/28 00:19:20;;;;;;;7.50;2.33;;;;;;;12.90;73.74;101856.41;5094798;28;20016;-43
2022/07/28 00:21:46;;;;;;;7.72;2.70;;;;;;;12.86;73.20;101855.44;5094356;28;20020;-44
2022/07/28 00:24:11;;;;;;;7.82;2.15;;;;;;;12.82;73.35;101859.63;5093827;28;20024;-44
2022/07/28 00:26:36;;;;;;;7.05;2.22;;;;;;;12.79;73.35;101861.19;5094173;28;20012;-43
2022/07/28 00:29:02;;;;;;;8.95;2.33;;;;;;;12.82;73.65;101863.88;5094377;28;20020;-45
2022/07/28 00:31:28;;;;;;;6.20;1.98;;;;;;;12.80;73.20;101863.84;5093705;28;20020;-45
2022/07/28 00:33:53;;;;;;;8.52;2.20;;;;;;;12.66;74.18;101867.63;5094233;28;20031;-45
2022/07/28 00:36:18;;;;;;;8.07;2.45;;;;;;;12.57;74.88;101859.53;5094201;28;20024;-46
2022/07/28 00:38:44;;;;;;;6.03;2.25;;;;;;;12.45;75.13;101855.66;5093407;28;20028;-46
2022/07/28 00:41:12;;;;;;;7.38;2.47;;;;;;;12.50;75.24;101848.94;5094093;28;20040;-44
2022/07/28 00:43:44;;;;;;;5.93;2.00;;;;;;;12.54;74.89;101854.22;5093873;28;20030;-44
2022/07/28 00:46:11;;;;;;;7.45;2.40;;;;;;;12.46;75.14;101854.84;5093976;28;20089;-46
2022/07/28 00:48:39;;;;;;;5.30;2.10;;;;;;;12.37;75.44;101857.06;5093944;28;20028;-44
2022/07/28 00:51:06;;;;;;;5.30;1.70;;;;;;;12.32;75.39;101858.59;5093357;28;20039;-43
2022/07/28 00:53:31;;;;;;;8.32;2.30;;;;;;;12.32;75.13;101856.88;5093726;28;20544;-44
2022/07/28 00:55:57;;;;;;;8.55;2.33;;;;;;;12.30;75.17;101852.47;5093948;28;20028;-43
2022/07/28 00:58:22;;;;;;;3.72;1.85;;;;;;;12.30;75.08;101852.47;5093326;28;20386;-44
2022/07/28 01:00:47;;;;;;;6.38;2.22;;;;;;;12.27;75.24;101842.03;5093716;28;20063;-46
2022/07/28 01:03:13;;;;;;;6.47;2.25;;;;;;;12.21;75.30;101831.44;5094011;28;20028;-44
2022/07/28 01:05:52;;;;;;;6.70;2.55;;;;;;;12.22;75.28;101838.38;5092750;28;20511;-46
2022/07/28 01:08:40;;;;;;;5.82;2.00;;;;;;;12.22;74.72;101834.09;5093770;28;20020;-43
2022/07/28 01:11:11;;;;;;;7.47;2.42;;;;;;;12.15;75.60;101838.13;5093691;28;20028;-43
2022/07/28 01:13:52;;;;;;;8.13;2.05;;;;;;;12.14;75.18;101835.50;5093005;28;20028;-44
2022/07/28 01:16:18;;;;;;;6.25;2.10;;;;;;;12.01;75.63;101835.00;5093753;28;20028;-44
2022/07/28 01:18:53;;;;;;;8.75;2.40;;;;;;;12.07;75.81;101833.47;5093048;28;20034;-45
2022/07/28 01:21:25;;;;;;;8.55;2.30;;;;;;;12.13;75.49;101846.66;5093176;28;20039;-43
2022/07/28 01:24:03;;;;;;;7.20;2.53;;;;;;;11.96;75.59;101838.25;5093599;28;20020;-44
2022/07/28 01:26:40;;;;;;;8.20;2.10;;;;;;;12.05;75.75;101840.31;5092666;28;20546;-43
2022/07/28 01:29:26;;;;;;;6.35;2.65;;;;;;;11.93;75.80;101830.31;5093469;28;20098;-43
2022/07/28 01:32:00;;;;;;;9.18;2.40;;;;;;;11.89;76.22;101828.44;5093513;28;20139;-44
2022/07/28 01:34:37;;;;;;;5.28;2.20;;;;;;;11.89;75.98;101825.84;5092636;28;20081;-44
2022/07/28 01:37:08;;;;;;;9.98;2.70;;;;;;;11.80;76.27;101834.09;5093396;28;20024;-48
2022/07/28 01:39:36;;;;;;;9.05;2.70;;;;;;;11.75;76.35;101827.88;5092592;28;20058;-43
2022/07/28 01:42:03;;;;;;;6.93;2.50;;;;;;;11.76;76.56;101830.53;5092502;28;20048;-43
2022/07/28 01:44:31;;;;;;;10.00;2.70;;;;;;;11.72;76.55;101826.06;5092490;28;20462;-46
2022/07/28 01:46:59;;;;;;;9.25;2.60;;;;;;;11.68;76.56;101819.00;5092838;28;20417;-44
2022/07/28 01:49:25;;;;;;;;;;;;;;;11.79;74.90;101819.47;5092855;28;20060;-45
2022/07/28 01:51:52;;;;;;;6.22;2.60;;;;;;;11.59;77.34;101818.63;5092957;28;19912;-44
2022/07/28 01:54:20;;;;;;;4.40;2.47;;;;;;;11.65;76.84;101813.72;5092235;28;20024;-45
2022/07/28 01:56:48;;;;;;;8.00;2.92;;;;;;;11.52;77.51;101815.78;5092942;28;20035;-43
2022/07/28 01:59:14;;;;;;;11.20;3.17;;;;;;;11.51;77.50;101816.59;5093191;28;20024;-45
2022/07/28 02:01:42;;;;;;;6.45;2.83;;;;;;;11.47;77.87;101819.88;5091914;28;20025;-44
2022/07/28 02:04:09;;;;;;;7.57;3.03;;;;;;;11.46;77.63;101817.25;5093017;28;20036;-45
2022/07/28 02:06:34;;;;;;;9.15;2.90;;;;;;;11.53;77.63;101807.22;5092569;28;20028;-45
2022/07/28 02:09:03;;;;;;;6.38;3.13;;;;;;;11.46;78.50;101801.75;5092051;28;20364;-43
2022/07/28 02:11:39;;;;;;;8.82;2.72;;;;;;;11.47;77.63;101804.41;5092968;28;20099;-43
2022/07/28 02:14:16;;;;;;;8.15;2.75;;;;;;;11.45;77.94;101805.16;5092828;28;20161;-43
2022/07/28 02:16:45;;;;;;;8.23;2.58;;;;;;;11.48;77.84;101794.97;5092168;28;20039;-44
2022/07/28 02:19:12;;;;;;;10.45;2.83;;;;;;;11.48;77.67;101798.41;5092740;28;20028;-44
2022/07/28 02:21:39;;;;;;;6.78;2.47;;;;;;;11.48;77.92;101795.84;5092474;28;20024;-43
2022/07/28 02:24:06;;;;;;;6.88;2.75;;;;;;;11.55;77.78;101806.44;5092310;28;20055;-44
2022/07/28 02:26:35;;;;;;;6.40;2.63;;;;;;;11.53;77.18;101799.50;5092492;28;20035;-43
2022/07/28 02:29:05;;;;;;;6.60;2.80;;;;;;;11.51;76.93;101801.13;5092453;28;20606;-45
2022/07/28 02:31:49;;;;;;;5.88;2.60;;;;;;;11.52;77.08;101797.72;5092086;28;20379;-43
2022/07/28 02:34:15;;;;;;;5.95;2.70;;;;;;;11.44;77.57;101793.06;5092661;28;20542;-44
2022/07/28 02:36:46;;;;;;;7.90;3.13;;;;;;;11.40;77.52;101792.06;5091779;28;20020;-43
2022/07/28 02:39:17;;;;;;;7.97;2.42;;;;;;;11.36;77.93;101797.91;5092802;28;20020;-44
2022/07/28 02:41:43;;;;;;;9.60;2.95;;;;;;;11.34;78.09;101796.97;5092083;28;20040;-44
2022/07/28 02:44:16;;;;;;;6.88;2.95;;;;;;;11.33;77.32;101805.53;5091825;28;20024;-43
2022/07/28 02:46:45;;;;;;;7.88;2.92;;;;;;;11.27;77.73;101801.00;5092537;28;20039;-43
2022/07/28 02:49:22;;;;;;;6.50;2.65;;;;;;;11.30;77.48;101797.66;5092292;28;20467;-43
2022/07/28 02:51:49;;;;;;;10.85;3.00;;;;;;;11.35;77.57;101798.75;5091630;28;20471;-44
2022/07/28 02:54:18;;;;;;;10.52;2.92;;;;;;;11.30;77.62;101802.84;5092410;28;20107;-44
2022/07/28 02:56:46;;;;;;;9.98;3.08;;;;;;;11.23;77.54;101804.25;5094711;28;20089;-44
2022/07/28 02:59:13;;;;;;;7.40;3.00;;;;;;;11.22;77.67;101801.59;5095882;28;20020;-43
2022/07/28 03:01:41;;;;;;;6.70;2.60;;;;;;;11.23;77.48;101804.25;5096061;28;20024;-45
2022/07/28 03:04:07;;;;;;;;;;;;;;;11.32;75.89;101806.34;5096521;28;20016;-49
2022/07/28 03:06:33;;;;;;;6.15;3.03;;;;;;;11.20;77.68;101793.81;5095303;28;20286;-44
2022/07/28 03:08:58;;;;;;;7.72;3.05;;;;;;;11.14;77.68;101789.28;5096020;28;20432;-43
2022/07/28 03:11:24;;;;;;;6.32;3.03;;;;;;;11.16;77.84;101797.06;5095649;28;20111;-46
2022/07/28 03:13:49;;;;;;;6.68;2.85;;;;;;;11.06;78.06;101790.63;5095480;28;20086;-43
2022/07/28 03:16:14;;;;;;;6.18;3.28;;;;;;;11.02;78.76;101792.19;5096028;28;20089;-44
2022/07/28 03:18:40;;;;;;;8.63;3.25;;;;;;;11.00;79.05;101790.38;5094794;28;20030;-46
2022/07/28 03:21:05;;;;;;;7.07;3.25;;;;;;;10.93;79.10;101790.94;5095921;28;20044;-45
2022/07/28 03:23:42;;;;;;;8.52;3.15;;;;;;;10.94;78.63;101800.44;5095801;28;20109;-43
2022/07/28 03:26:26;;;;;;;8.73;3.50;;;;;;;10.88;78.81;101801.03;5095202;28;20028;-46
2022/07/28 03:28:53;;;;;;;7.30;3.20;;;;;;;10.69;80.02;101809.66;5095691;28;20067;-43
2022/07/28 03:31:19;;;;;;;10.48;3.35;;;;;;;10.64;80.27;101814.63;5095520;28;20035;-43
2022/07/28 03:33:46;;;;;;;6.80;3.45;;;;;;;10.53;80.93;101810.69;5094790;28;20040;-43
2022/07/28 03:36:13;;;;;;;7.28;3.47;;;;;;;10.38;81.23;101808.31;5095530;28;20067;-44
2022/07/28 03:38:47;;;;;;;8.82;3.20;;;;;;;10.32;81.47;101806.28;5095230;28;20028;-43
2022/07/28 03:41:15;;;;;;;9.55;3.75;;;;;;;10.16;82.20;101807.25;5094799;28;20051;-44
2022/07/28 03:43:41;;;;;;;6.97;3.40;;;;;;;10.15;82.44;101809.78;5095030;28;20490;-43
2022/07/28 03:46:07;;;;;;;7.47;3.35;;;;;;;10.23;82.66;101803.28;5095007;28;20420;-45
2022/07/28 03:48:33;;;;;;;8.15;3.25;;;;;;;10.18;82.55;101803.03;5094400;28;20024;-43
2022/07/28 03:50:59;;;;;;;8.18;3.40;;;;;;;10.13;82.44;101806.22;5095295;28;20020;-43
2022/07/28 03:53:26;;;;;;;8.93;4.03;;;;;;;10.22;82.75;101811.81;5095047;28;20024;-43
2022/07/28 03:55:52;;;;;;;;;;;;;;;10.25;80.23;101811.97;5095108;28;20110;-43
2022/07/28 03:58:23;;;;;;;11.00;3.72;;;;;;;10.19;83.08;101815.13;5095168;28;19912;-44
2022/07/28 04:00:49;;;;;;;13.27;3.78;;;;;;;10.15;82.65;101813.22;5093989;28;20031;-43
2022/07/28 04:03:16;;;;;;;9.30;3.83;;;;;;;10.03;83.48;101807.47;5094806;28;20360;-44
2022/07/28 04:05:42;;;;;;;11.43;3.73;;;;;;;10.05;82.91;101804.16;5094893;28;20024;-44
2022/07/28 04:08:07;;;;;;;10.40;3.53;;;;;;;9.98;83.38;101806.38;5093759;28;20035;-43
2022/07/28 04:10:32;;;;;;;14.32;3.50;;;;;;;10.02;83.72;101804.03;5094675;28;20102;-43
2022/07/28 04:12:58;;;;;;;7.00;3.50;;;;;;;10.09;83.79;101800.03;5095115;28;20035;-43
2022/07/28 04:15:25;;;;;;;7.68;3.13;;;;;;;10.04;83.70;101801.53;5094089;28;20024;-44
2022/07/28 04:17:52;;;;;;;8.27;3.77;;;;;;;10.16;83.75;101796.97;5094603;28;20034;-43
2022/07/28 04:20:19;;;;;;;9.05;3.60;;;;;;;10.11;83.86;101801.00;5094842;28;20282;-43
2022/07/28 04:22:46;;;;;;;8.93;3.78;;;;;;;10.11;83.96;101795.88;5093603;28;20067;-43
2022/07/28 04:25:13;;;;;;;8.48;3.47;;;;;;;10.15;83.78;101807.19;5094732;28;20027;-43
2022/07/28 04:27:40;;;;;;;10.80;3.40;;;;;;;10.26;83.98;101797.38;5094098;28;20062;-43
2022/07/28 04:30:09;;;;;;;6.80;3.33;;;;;;;10.35;83.03;101795.22;5093938;28;20032;-45
2022/07/28 04:32:35;;;;;;;8.32;3.17;;;;;;;10.38;83.24;101787.69;5094001;28;20107;-44
2022/07/28 04:35:00;;;;;;;7.60;3.15;;;;;;;10.44;83.36;101789.66;5094092;28;20446;-43
2022/07/28 04:37:26;;;;;;;7.50;3.08;;;;;;;10.52;82.81;101791.75;5093836;28;20028;-43
2022/07/28 04:39:51;;;;;;;9.00;2.78;;;;;;;10.53;83.06;101796.09;5094070;28;20070;-43
2022/07/28 04:42:17;;;;;;;6.88;2.90;;;;;;;10.59;82.39;101792.00;5093984;28;20061;-43
2022/07/28 04:44:44;;;;;;;13.73;3.83;;;;;;;10.66;82.87;101788.91;5093388;28;20017;-43
2022/07/28 04:47:10;;;;;;;14.47;3.23;;;;;;;10.70;82.96;101795.94;5094119;28;20095;-43
2022/07/28 04:49:36;;;;;;;9.80;3.50;;;;;;;10.71;82.42;101787.41;5093734;28;20024;-44
2022/07/28 04:52:02;;;;;;;8.70;3.25;;;;;;;10.75;82.56;101788.44;5093679;28;20111;-43
2022/07/28 04:54:27;;;;;;;7.53;3.33;;;;;;;10.84;82.30;101788.84;5093949;28;20076;-43
2022/07/28 04:56:52;;;;;;;13.75;4.15;;;;;;;10.84;82.40;101789.69;5093707;28;20027;-42
2022/07/28 04:59:18;;;;;;;12.43;3.40;;;;;;;10.96;82.46;101793.63;5093342;28;20069;-43
2022/07/28 05:01:43;;;;;;;10.68;3.50;;;;;;;11.05;81.22;101794.03;5093369;28;20503;-43
2022/07/28 05:04:09;;;;;;;12.63;3.50;;;;;;;11.03;81.12;101791.38;5092917;28;20031;-43
2022/07/28 05:06:34;;;;;;;10.95;3.45;;;;;;;11.11;80.94;101799.44;5093701;28;20095;-45
2022/07/28 05:09:00;;;;;;;12.57;3.58;;;;;;;11.17;80.77;101797.13;5093656;28;20027;-45
2022/07/28 05:11:25;;;;;;;8.90;3.35;;;;;;;11.29;80.80;101798.47;5092874;28;20143;-43
2022/07/28 05:13:50;;;;;;;8.82;3.20;;;;;;;11.27;80.28;101793.25;5093591;28;20569;-43
2022/07/28 05:16:16;;;;;;;11.75;3.20;;;;;;;11.31;80.32;101796.81;5093556;28;20065;-42
2022/07/28 05:18:41;;;;;;;9.15;3.15;;;;;;;11.34;80.30;101796.97;5092203;28;20016;-43
2022/07/28 05:21:06;;;;;;;9.75;3.30;;;;;;;11.36;80.17;101797.91;5093349;28;20024;-44
2022/07/28 05:23:32;;;;;;;9.82;3.58;;;;;;;11.41;80.00;101798.97;5092984;28;20475;-45
2022/07/28 05:25:57;;;;;;;11.07;3.80;;;;;;;11.46;80.79;101802.63;5093231;28;20039;-44
2022/07/28 05:28:23;;;;;;;12.73;3.92;;;;;;;11.55;80.25;101796.97;5093542;28;20047;-45
2022/07/28 05:30:48;;;;;;;7.38;3.28;;;;;;;11.66;79.49;101805.16;5092821;28;20115;-45
2022/07/28 05:33:14;;;;;;;9.18;3.22;;;;;;;11.70;79.64;101799.31;5092890;28;20012;-45
2022/07/28 05:35:39;;;;;;;13.07;3.33;;;;;;;11.82;79.46;101793.75;5093215;28;20036;-44
2022/07/28 05:38:05;;;;;;;11.00;3.35;;;;;;;11.85;79.73;101796.44;5093077;28;20020;-43
2022/07/28 05:40:30;;;;;;;7.72;2.83;;;;;;;11.96;78.64;101795.19;5092178;28;20504;-44
2022/07/28 05:42:55;;;;;;;8.23;3.22;;;;;;;12.09;78.03;101804.31;5093043;28;20036;-43
2022/07/28 05:45:21;;;;;;;10.57;3.33;;;;;;;12.15;78.10;101801.09;5092899;28;20020;-43
2022/07/28 05:47:48;;;;;;;9.15;3.22;;;;;;;12.24;77.34;101804.03;5092219;28;20024;-44
2022/07/28 05:50:15;;;;;;;8.60;3.17;;;;;;;12.35;77.78;101805.28;5093369;28;20036;-45
2022/07/28 05:52:41;;;;;;;14.70;3.58;;;;;;;12.46;77.19;101803.13;5092586;28;20024;-43
2022/07/28 05:55:07;;;;;;;13.43;3.05;;;;;;;12.58;75.54;101812.16;5092785;28;20031;-43
2022/07/28 05:57:32;;;;;;;6.72;3.13;;;;;;;12.70;75.11;101807.41;5092809;28;20024;-43
2022/07/28 05:59:58;;;;;;;10.63;2.90;;;;;;;12.89;74.87;101808.97;5092661;28;20544;-44
2022/07/28 06:02:23;;;;;;;12.77;3.58;;;;;;;13.09;74.12;101809.69;5092536;28;20076;-43
2022/07/28 06:04:48;;;;;;;9.38;3.03;;;;;;;13.32;74.03;101807.88;5092775;28;20035;-43
2022/07/28 06:07:14;;;;;;;10.32;2.85;;;;;;;13.48;72.46;101809.28;5092845;28;20356;-43
2022/07/28 06:09:39;;;;;;;10.25;3.28;;;;;;;13.66;72.01;101802.97;5091923;28;20036;-43
2022/07/28 06:12:05;;;;;;;7.68;2.70;;;;;;;13.74;70.75;101809.25;5092829;28;20460;-45
2022/07/28 06:14:30;;;;;;;9.05;2.95;;;;;;;13.91;72.12;101803.72;5091824;28;20048;-43
2022/07/28 06:16:55;;;;;;;9.10;2.78;;;;;;;14.02;70.83;101799.78;5092997;28;20107;-44
2022/07/28 06:19:20;;;;;;;10.57;3.05;;;;;;;14.08;69.99;101809.44;5092956;28;20388;-43
2022/07/28 06:21:51;;;;;;;7.80;3.13;;;;;;;14.19;69.82;101807.16;5091819;28;20046;-43
2022/07/28 06:24:16;;;;;;;10.20;3.20;;;;;;;14.37;69.71;101799.03;5092836;28;20024;-43
2022/07/28 06:26:42;;;;;;;9.50;3.10;;;;;;;14.39;69.11;101800.84;5092239;28;20028;-43
2022/07/28 06:29:07;;;;;;;8.27;3.45;;;;;;;14.30;68.59;101803.19;5092151;28;20020;-43
2022/07/28 06:31:32;;;;;;;7.75;2.60;;;;;;;14.38;67.90;101801.66;5094902;28;20066;-43
2022/07/28 06:33:57;;;;;;;9.70;3.13;;;;;;;14.32;68.39;101804.13;5096616;28;20020;-44
2022/07/28 06:36:23;;;;;;;8.63;2.85;;;;;;;14.48;68.27;101801.09;5096259;28;20444;-43
2022/07/28 06:38:48;;;;;;;8.88;2.90;;;;;;;14.51;68.25;101800.31;5096184;28;20085;-46
2022/07/28 06:41:14;;;;;;;11.90;3.13;;;;;;;14.51;67.33;101794.25;5095783;28;20537;-46
2022/07/28 06:43:39;;;;;;;9.88;3.17;;;;;;;14.51;67.58;101796.84;5094791;28;20062;-43
2022/07/28 06:46:04;;;;;;;8.23;3.05;;;;;;;14.55;68.85;101799.59;5096463;28;20073;-44
2022/07/28 06:48:29;;;;;;;8.55;2.80;;;;;;;14.60;68.00;101795.41;5096273;28;20027;-43
2022/07/28 06:50:58;;;;;;;9.35;3.00;;;;;;;14.61;66.70;101793.69;5095905;28;20027;-43
2022/07/28 06:53:24;;;;;;;6.90;2.67;;;;;;;14.63;65.77;101799.81;5096518;28;20110;-44
2022/07/28 06:55:51;;;;;;;6.78;2.40;;;;;;;14.64;66.05;101799.88;5096078;28;20024;-43
2022/07/28 06:58:16;;;;;;;20.25;3.05;;;;;;;14.69;65.71;101802.59;5095643;28;20372;-43
2022/07/28 07:00:41;;;;;;;12.60;2.67;;;;;;;14.75;65.42;101805.34;5096167;28;20024;-45
2022/07/28 07:03:07;;;;;;;7.70;2.15;;;;;;;14.86;66.59;101803.06;5095767;28;20036;-46
2022/07/28 07:05:32;;;;;;;12.32;2.40;;;;;;;14.92;68.52;101810.13;5095465;28;20028;-44
2022/07/28 07:07:57;;;;;;;7.97;2.35;;;;;;;15.09;65.58;101803.69;5096512;28;20103;-43
2022/07/28 07:10:23;;;;;;;10.70;2.40;;;;;;;15.16;64.27;101812.50;5095840;28;20059;-44
2022/07/28 07:12:48;;;;;;;11.50;2.38;;;;;;;15.29;64.77;101809.38;5095205;28;20032;-46
2022/07/28 07:15:13;;;;;;;9.27;2.50;;;;;;;15.38;64.80;101803.56;5095917;28;20039;-43
2022/07/28 07:17:40;;;;;;;9.70;2.15;;;;;;;15.48;63.84;101804.66;5095561;28;20027;-43
2022/07/28 07:20:07;;;;;;;10.52;2.25;;;;;;;15.51;64.21;101809.06;5095453;28;20028;-44
2022/07/28 07:22:33;;;;;;;6.10;2.00;;;;;;;15.55;63.00;101810.88;5095597;28;20065;-46
2022/07/28 07:25:10;;;;;;;12.77;2.30;;;;;;;15.53;63.52;101812.56;5094918;28;20035;-43
2022/07/28 07:27:36;;;;;;;10.73;2.33;;;;;;;15.52;63.08;101805.59;5095278;28;20516;-44
2022/07/28 07:30:03;;;;;;;11.30;2.35;;;;;;;15.62;63.22;101810.19;5095374;28;20021;-43
2022/07/28 07:32:28;;;;;;;6.28;2.05;;;;;;;15.85;63.26;101809.88;5094982;28;20055;-44
2022/07/28 07:34:54;;;;;;;8.63;2.58;;;;;;;16.00;63.04;101810.25;5095665;28;20059;-44
2022/07/28 07:37:20;;;;;;;6.57;1.75;;;;;;;16.29;62.40;101807.38;5095479;28;20051;-45
2022/07/28 07:39:45;;;;;;;8.23;2.10;;;;;;;16.35;60.79;101807.53;5094724;28;20096;-43
2022/07/28 07:42:10;;;;;;;10.05;2.10;;;;;;;16.41;59.65;101801.56;5094164;28;20051;-44
2022/07/28 07:44:36;;;;;;;11.65;2.33;;;;;;;16.49;59.67;101794.81;5095174;28;20027;-44
2022/07/28 07:47:01;;;;;;;25.85;2.80;;;;;;;16.55;58.96;101794.03;5094644;28;20028;-45
2022/07/28 07:49:26;;;;;;;8.50;2.13;;;;;;;16.57;59.83;101797.56;5095257;28;20024;-44
2022/07/28 07:51:51;;;;;;;12.05;2.28;;;;;;;16.43;60.08;101798.16;5094974;28;20051;-44
2022/07/28 07:54:17;;;;;;;6.63;1.88;;;;;;;16.39;58.65;101792.88;5094651;28;20028;-43
2022/07/28 07:56:42;;;;;;;9.80;1.98;;;;;;;16.39;59.35;101782.47;5094983;28;20020;-43
2022/07/28 07:59:07;;;;;;;6.38;2.00;;;;;;;16.26;59.70;101792.59;5095109;28;20489;-45
2022/07/28 08:01:32;;;;;;;5.93;2.05;;;;;;;16.23;59.38;101784.75;5094199;28;20036;-46
2022/07/28 08:03:59;;;;;;;10.75;2.42;;;;;;;16.40;61.19;101795.50;5095117;28;20543;-44
2022/07/28 08:06:26;;;;;;;10.75;2.05;;;;;;;16.55;59.37;101794.03;5094635;28;20031;-45
2022/07/28 08:08:51;;;;;;;8.90;1.90;;;;;;;16.69;61.10;101792.59;5094273;28;20481;-43
2022/07/28 08:11:17;;;;;;;8.23;1.90;;;;;;;16.82;59.35;101790.22;5094842;28;20497;-43
2022/07/28 08:13:42;;;;;;;7.32;1.88;;;;;;;16.92;58.65;101779.19;5094531;28;20127;-43
2022/07/28 08:16:07;;;;;;;9.52;1.98;;;;;;;17.00;58.40;101782.78;5094456;28;20081;-45
2022/07/28 08:18:33;;;;;;;5.28;1.80;;;;;;;17.08;57.86;101778.59;5094549;28;20023;-44
2022/07/28 08:20:58;;;;;;;13.73;2.65;;;;;;;17.14;59.30;101775.22;5094612;28;20078;-43
2022/07/28 08:23:23;;;;;;;5.60;1.73;;;;;;;17.23;59.94;101772.75;5094069;28;20030;-45
2022/07/28 08:25:48;;;;;;;9.75;2.33;;;;;;;17.46;59.70;101776.63;5094288;28;20028;-43
2022/07/28 08:28:14;;;;;;;8.57;2.40;;;;;;;17.39;56.29;101775.63;5093957;28;20016;-44
2022/07/28 08:30:39;;;;;;;5.53;1.80;;;;;;;17.46;56.06;101776.63;5094476;28;20020;-46
2022/07/28 08:33:04;;;;;;;9.35;1.95;;;;;;;17.50;55.62;101781.03;5094361;28;20039;-47
2022/07/28 08:35:30;;;;;;;5.38;1.60;;;;;;;17.56;55.59;101783.75;5093736;28;20028;-43
2022/07/28 08:37:55;;;;;;;9.30;1.80;;;;;;;17.66;55.78;101783.00;5094341;28;20056;-43
2022/07/28 08:40:20;;;;;;;8.45;1.70;;;;;;;17.72;54.28;101785.69;5093776;28;20055;-43
2022/07/28 08:42:57;;;;;;;11.32;1.90;;;;;;;17.89;56.18;101779.88;5093333;28;20082;-46
2022/07/28 08:45:25;;;;;;;7.97;1.83;;;;;;;18.12;54.72;101769.78;5094233;28;20425;-44
2022/07/28 08:47:51;;;;;;;;;;;;;;;18.24;56.49;101784.72;5094393;28;20072;-43
2022/07/28 08:50:19;;;;;;;8.73;1.95;;;;;;;18.24;54.41;101777.78;5093443;28;20355;-44
2022/07/28 08:52:48;;;;;;;6.47;1.70;;;;;;;18.43;54.01;101768.41;5093787;28;20415;-43
2022/07/28 08:55:14;;;;;;;6.93;1.70;;;;;;;18.51;54.16;101765.03;5093904;28;20020;-43
2022/07/28 08:57:40;;;;;;;7.53;1.80;;;;;;;18.59;52.80;101765.97;5093347;28;20386;-44
2022/07/28 09:00:07;;;;;;;8.18;2.00;;;;;;;18.76;53.37;101774.03;5094142;28;20028;-44
2022/07/28 09:02:37;;;;;;;10.18;1.80;;;;;;;18.95;52.43;101777.69;5093443;28;20031;-44
2022/07/28 09:05:03;;;;;;;6.40;1.80;;;;;;;18.92;52.43;101769.84;5093369;28;20103;-44
2022/07/28 09:07:30;;;;;;;8.90;1.95;;;;;;;18.97;51.76;101768.16;5093449;28;20024;-44
2022/07/28 09:09:56;;;;;;;8.15;2.08;;;;;;;19.07;50.50;101766.53;5093671;28;20106;-43
2022/07/28 09:12:21;;;;;;;8.48;1.80;;;;;;;19.33;51.78;101766.72;5093396;28;20102;-44
2022/07/28 09:14:47;;;;;;;7.93;2.00;;;;;;;19.33;50.38;101761.50;5093509;28;20026;-44
2022/07/28 09:17:12;;;;;;;7.03;1.90;;;;;;;19.40;49.95;101760.66;5093557;28;20020;-44
2022/07/28 09:19:38;;;;;;;11.90;2.22;;;;;;;19.46;49.91;101758.97;5092724;28;20065;-44
2022/07/28 09:22:04;;;;;;;9.07;2.08;;;;;;;19.54;50.00;101759.91;5093403;28;20032;-44
2022/07/28 09:24:38;;;;;;;6.55;1.63;;;;;;;19.70;50.38;101745.19;5092877;28;20040;-44
2022/07/28 09:27:06;;;;;;;11.90;2.78;;;;;;;19.93;50.79;101750.56;5093618;28;20036;-48
2022/07/28 09:29:33;;;;;;;6.63;1.83;;;;;;;19.99;50.18;101737.53;5093023;28;20103;-44
2022/07/28 09:31:58;;;;;;;5.38;1.67;;;;;;;19.93;48.58;101736.63;5092940;28;20475;-45
2022/07/28 09:34:23;;;;;;;5.75;1.60;;;;;;;19.97;47.63;101739.25;5093255;28;20024;-47
2022/07/28 09:36:49;;;;;;;8.15;1.85;;;;;;;20.04;48.10;101740.19;5092715;28;20020;-44
2022/07/28 09:39:31;;;;;;;7.38;1.70;;;;;;;20.19;48.81;101739.34;5092946;28;20035;-43
2022/07/28 09:41:57;;;;;;;8.23;1.60;;;;;;;20.42;47.19;101730.72;5092963;28;20491;-45
2022/07/28 09:44:23;;;;;;;8.32;1.85;;;;;;;20.71;49.20;101715.97;5092850;28;20130;-44
2022/07/28 09:46:49;;;;;;;8.13;1.60;;;;;;;20.80;46.40;101709.88;5092470;28;20024;-45
2022/07/28 09:49:15;;;;;;;9.25;2.13;;;;;;;21.03;46.53;101712.50;5093017;28;20026;-43
2022/07/28 09:51:40;;;;;;;11.95;1.95;;;;;;;21.14;47.47;101711.63;5092762;28;20450;-44
2022/07/28 09:54:16;;;;;;;9.23;1.60;;;;;;;21.27;47.32;101709.88;5092554;28;20024;-44
2022/07/28 09:56:43;;;;;;;4.55;1.45;;;;;;;21.74;45.60;101702.78;5092831;28;20052;-45
2022/07/28 09:59:09;;;;;;;8.15;1.55;;;;;;;21.93;42.83;101699.22;5092765;28;20032;-44
2022/07/28 10:01:57;;;;;;;9.13;1.75;;;;;;;22.24;44.03;101713.97;5092064;28;20036;-44
2022/07/28 10:04:37;;;;;;;6.95;1.67;;;;;;;22.67;43.60;101717.22;5092826;28;20106;-45
2022/07/28 10:07:06;;;;;;;4.25;1.30;;;;;;;22.96;42.45;101716.13;5092089;28;20032;-46
2022/07/28 10:09:32;;;;;;;8.35;1.38;;;;;;;23.13;41.77;101710.72;5092931;28;20047;-44
2022/07/28 10:12:13;;;;;;;5.40;1.30;;;;;;;23.21;42.02;101710.69;5092534;28;20352;-44
2022/07/28 10:14:38;;;;;;;6.25;1.38;;;;;;;23.62;40.20;101712.03;5092021;28;20534;-44
2022/07/28 10:17:04;;;;;;;8.57;1.48;;;;;;;24.24;39.82;101706.03;5092888;28;20103;-44
2022/07/28 10:19:30;;;;;;;3.70;1.30;;;;;;;24.81;37.71;101709.59;5092507;28;20153;-47
2022/07/28 10:21:57;;;;;;;5.97;1.30;;;;;;;25.54;36.58;101709.22;5092046;28;20107;-44
2022/07/28 10:24:26;;;;;;;4.90;1.20;;;;;;;25.89;34.16;101710.28;5092870;28;20019;-44
2022/07/28 10:26:55;;;;;;;4.85;1.48;;;;;;;26.60;33.06;101706.09;5092475;28;20035;-44
2022/07/28 10:29:21;;;;;;;6.00;1.30;;;;;;;26.59;32.85;101704.34;5092296;28;20161;-48
2022/07/28 10:32:04;;;;;;;2.70;1.20;;;;;;;27.47;33.54;101708.38;5092408;28;20356;-45
2022/07/28 10:34:37;;;;;;;7.05;1.42;;;;;;;27.97;30.74;101702.53;5092089;28;20387;-47
2022/07/28 10:37:07;;;;;;;5.90;1.30;;;;;;;27.89;31.02;101714.22;5092333;28;20047;-46
2022/07/28 10:39:40;;;;;;;6.85;1.80;;;;;;;28.56;30.96;101702.47;5092047;28;20375;-45
2022/07/28 10:42:12;;;;;;;9.50;1.60;;;;;;;29.04;29.24;101700.06;5091981;28;20048;-45
2022/07/28 10:44:40;;;;;;;7.47;1.23;;;;;;;29.12;27.51;101700.63;5092345;28;20028;-46
2022/07/28 10:47:09;;;;;;;4.95;1.00;;;;;;;29.35;28.37;101699.00;5092291;28;20020;-44
2022/07/28 10:49:35;;;;;;;6.65;1.35;;;;;;;29.56;27.45;101703.50;5091792;28;20134;-44
2022/07/28 10:52:02;;;;;;;3.92;1.10;;;;;;;29.48;26.78;101699.44;5093042;28;20020;-44
2022/07/28 10:54:29;;;;;;;7.18;1.52;;;;;;;29.79;26.77;101701.78;5092365;28;20024;-44
2022/07/28 10:57:01;;;;;;;6.13;1.25;;;;;;;29.90;27.43;101693.44;5091953;28;20058;-46
2022/07/28 10:59:57;;;;;;;3.92;1.00;;;;;;;30.20;29.01;101687.84;5092380;28;20028;-45
2022/07/28 11:02:57;;;;;;;7.50;1.20;;;;;;;30.60;28.26;101690.72;5092354;28;20024;-43
2022/07/28 11:05:31;;;;;;;4.60;1.20;;;;;;;30.53;27.58;101690.09;5092492;28;20023;-44
2022/07/28 11:07:59;;;;;;;4.53;1.20;;;;;;;30.22;25.20;101684.19;5092094;28;20473;-43
2022/07/28 11:10:25;;;;;;;4.72;1.17;;;;;;;30.02;25.06;101694.75;5091516;28;20127;-42
2022/07/28 11:12:53;;;;;;;3.28;0.90;;;;;;;29.89;26.22;101689.91;5092217;28;20024;-43
2022/07/28 11:15:31;;;;;;;3.42;0.98;;;;;;;30.54;27.58;101682.06;5092174;28;20020;-42
2022/07/28 11:18:07;;;;;;;5.00;1.40;;;;;;;30.97;25.48;101678.50;5093175;28;20020;-42
2022/07/28 11:20:51;;;;;;;5.10;0.98;;;;;;;31.31;27.34;101682.38;5095566;28;20020;-42
2022/07/28 11:23:35;;;;;;;7.65;1.48;;;;;;;31.85;25.43;101670.16;5095645;28;20040;-46
2022/07/28 11:26:18;;;;;;;5.57;1.10;;;;;;;31.26;26.54;101668.38;5095353;28;20035;-43
2022/07/28 11:28:59;;;;;;;5.85;1.40;;;;;;;31.67;25.62;101668.34;5095284;28;20035;-42